createdAt,value
2022-08-17T00:04:11.850Z,64.25
2022-08-17T00:09:41.278Z,62.95
2022-08-17T00:15:12.928Z,64.61
2022-08-17T00:20:44.865Z,66.48
2022-08-17T00:26:34.891Z,67.59
2022-08-17T00:31:48.651Z,65.88
2022-08-17T00:37:20.704Z,67.00
2022-08-17T00:42:52.360Z,64.59
2022-08-17T00:48:29.424Z,66.71
2022-08-17T00:53:56.010Z,67.47
2022-08-17T00:59:27.995Z,67.44
2022-08-17T01:05:00.065Z,69.52
2022-08-17T01:10:59.305Z,68.04
2022-08-17T01:16:03.952Z,69.89
2022-08-17T01:21:35.891Z,69.04
2022-08-17T01:27:10.409Z,70.08
2022-08-17T01:32:39.765Z,71.39
2022-08-17T01:38:11.407Z,68.86
2022-08-17T01:43:43.487Z,70.96
2022-08-17T01:49:15.086Z,68.47
2022-08-17T01:54:47.145Z,70.74
2022-08-17T02:00:18.626Z,71.84
2022-08-17T02:05:50.610Z,70.32
2022-08-17T02:11:22.222Z,71.81
2022-08-17T02:16:54.169Z,71.27
2022-08-17T02:22:25.995Z,72.03
2022-08-17T02:27:57.845Z,71.12
2022-08-17T02:33:41.804Z,70.67
2022-08-17T02:39:01.391Z,73.66
2022-08-17T02:44:38.890Z,71.72
2022-08-17T02:50:05.516Z,71.80
2022-08-17T02:55:37.521Z,71.46
2022-08-17T03:01:09.869Z,72.32
2022-08-17T03:06:41.544Z,71.16
2022-08-17T03:12:13.315Z,71.70
2022-08-17T03:17:45.636Z,71.59
2022-08-17T03:23:17.747Z,70.03
2022-08-17T03:28:49.608Z,68.99
2022-08-17T03:34:21.242Z,69.90
2022-08-17T03:39:54.709Z,71.68
2022-08-17T03:45:26.763Z,69.83
2022-08-17T03:50:58.962Z,73.07
2022-08-17T03:56:31.081Z,72.47
2022-08-17T04:04:27.677Z,72.33
2022-08-17T04:09:55.657Z,70.60
2022-08-17T04:15:27.722Z,74.68
2022-08-17T04:20:59.921Z,72.12
2022-08-17T04:26:52.527Z,73.56
2022-08-17T04:32:03.387Z,74.79
2022-08-17T04:39:48.961Z,73.11
2022-08-17T04:45:20.763Z,72.17
2022-08-17T04:50:52.397Z,71.34
2022-08-17T04:56:23.892Z,71.04
2022-08-17T05:01:55.895Z,70.37
2022-08-17T05:07:31.418Z,71.89
2022-08-17T05:12:59.517Z,71.30
2022-08-17T05:18:31.013Z,71.11
2022-08-17T05:24:02.960Z,71.70
2022-08-17T05:29:35.753Z,70.75
2022-08-17T05:35:06.765Z,68.18
2022-08-17T05:40:38.474Z,64.46
2022-08-17T05:46:09.997Z,60.99
2022-08-17T05:51:41.877Z,57.74
2022-08-17T05:57:13.929Z,56.93
2022-08-17T06:02:47.823Z,53.59
2022-08-17T06:08:17.586Z,54.63
2022-08-17T06:13:49.352Z,51.36
2022-08-17T06:19:21.042Z,50.74
2022-08-17T06:24:52.712Z,50.80
2022-08-17T06:30:24.765Z,51.63
2022-08-17T06:35:56.432Z,49.31
2022-08-17T06:41:28.175Z,47.83
2022-08-17T06:46:59.938Z,48.52
2022-08-17T06:52:45.438Z,48.17
2022-08-17T06:58:05.770Z,47.54
2022-08-17T07:03:35.324Z,46.60
2022-08-17T07:09:07.061Z,45.17
2022-08-17T07:14:39.138Z,43.26
2022-08-17T07:20:10.874Z,42.67
2022-08-17T07:25:42.681Z,40.47
2022-08-17T07:31:14.771Z,39.60
2022-08-17T07:36:46.768Z,37.84
2022-08-17T07:42:18.585Z,36.80
2022-08-17T07:47:50.100Z,35.37
2022-08-17T07:53:21.593Z,34.71
2022-08-17T07:58:53.595Z,34.24
2022-08-17T08:04:43.222Z,34.21
2022-08-17T08:09:57.432Z,33.75
2022-08-17T08:15:29.199Z,33.60
2022-08-17T08:21:01.125Z,34.54
2022-08-17T08:26:32.800Z,34.03
2022-08-17T08:32:04.868Z,34.35
2022-08-17T08:37:40.633Z,33.32
2022-08-17T08:43:08.068Z,34.12
2022-08-17T08:48:53.186Z,33.17
2022-08-17T08:54:11.839Z,33.81
2022-08-17T08:59:44.288Z,33.13
2022-08-17T09:05:15.978Z,33.20
2022-08-17T09:10:47.372Z,33.67
2022-08-17T09:16:19.151Z,33.59
2022-08-17T09:21:51.088Z,32.80
2022-08-17T09:27:22.658Z,32.38
2022-08-17T09:32:56.565Z,34.14
2022-08-17T09:38:32.290Z,33.41
2022-08-17T09:44:00.254Z,34.03
2022-08-17T09:49:34.112Z,35.10
2022-08-17T09:55:06.276Z,36.94
2022-08-17T10:00:37.972Z,36.56
2022-08-17T10:06:09.863Z,36.42
2022-08-17T10:11:44.848Z,36.54
2022-08-17T10:22:45.670Z,38.28
2022-08-17T10:28:19.950Z,37.84
2022-08-17T10:33:48.514Z,37.06
2022-08-17T10:39:20.073Z,35.95
2022-08-17T10:44:51.985Z,35.89
2022-08-17T10:50:23.697Z,38.10
2022-08-17T10:52:46.666Z,37.89
2022-08-17T10:58:18.299Z,37.02
2022-08-17T11:03:49.940Z,35.59
2022-08-17T11:09:21.875Z,35.42
2022-08-17T11:14:53.454Z,35.28
2022-08-17T11:20:25.475Z,34.78
2022-08-17T11:25:57.214Z,32.96
2022-08-17T11:37:01.129Z,34.19
2022-08-17T11:42:32.689Z,34.23
2022-08-17T11:48:28.880Z,34.93
2022-08-17T11:53:36.186Z,34.88
2022-08-17T11:59:07.975Z,34.63
2022-08-17T12:04:39.911Z,33.95
2022-08-17T12:10:11.531Z,33.28
2022-08-17T12:15:43.335Z,33.28
2022-08-17T12:21:15.114Z,33.42
2022-08-17T12:26:47.116Z,33.29
2022-08-17T12:32:18.784Z,33.06
2022-08-17T12:37:52.851Z,33.74
2022-08-17T12:43:24.588Z,33.70
2022-08-17T12:48:59.875Z,33.37
2022-08-17T12:59:59.943Z,32.64
2022-08-17T13:05:31.966Z,32.99
2022-08-17T13:11:03.667Z,33.14
2022-08-17T13:16:35.647Z,31.55
2022-08-17T13:22:07.466Z,30.42
2022-08-17T13:27:38.973Z,30.46
2022-08-17T13:33:11.109Z,29.97
2022-08-17T13:38:42.712Z,30.02
2022-08-17T13:44:14.582Z,30.90
2022-08-17T13:49:48.694Z,29.88
2022-08-17T13:55:17.929Z,29.99
2022-08-17T14:00:49.938Z,29.32
2022-08-17T14:06:23.715Z,28.67
2022-08-17T14:11:53.355Z,28.24
2022-08-17T14:17:25.261Z,28.07
2022-08-17T14:22:57.054Z,28.29
2022-08-17T14:28:28.792Z,28.43
2022-08-17T14:34:00.724Z,28.33
2022-08-17T14:39:32.382Z,28.82
2022-08-17T14:45:04.158Z,29.13
2022-08-17T14:50:36.251Z,30.18
2022-08-17T14:56:07.854Z,30.78
2022-08-17T15:01:39.974Z,30.98
2022-08-17T15:07:11.713Z,31.12
2022-08-17T15:12:43.534Z,31.23
2022-08-17T15:18:15.272Z,31.20
2022-08-17T15:23:46.883Z,30.72
2022-08-17T15:29:18.865Z,30.88
2022-08-17T15:34:50.849Z,31.20
2022-08-17T15:40:22.770Z,31.40
2022-08-17T15:45:59.773Z,30.92
2022-08-17T15:51:26.416Z,30.90
2022-08-17T15:56:58.204Z,31.30
2022-08-17T16:03:13.359Z,31.78
2022-08-17T16:08:01.643Z,31.70
2022-08-17T16:13:33.531Z,32.00
2022-08-17T16:19:05.144Z,31.93
2022-08-17T16:24:36.588Z,32.17
2022-08-17T16:30:08.406Z,32.29
2022-08-17T16:35:40.946Z,32.67
2022-08-17T16:41:12.789Z,33.22
2022-08-17T16:46:45.931Z,33.24
2022-08-17T16:52:16.157Z,33.04
2022-08-17T16:57:50.214Z,33.41
2022-08-17T17:03:20.617Z,33.62
2022-08-17T17:08:51.754Z,34.58
2022-08-17T17:14:23.396Z,34.78
2022-08-17T17:19:55.290Z,35.67
2022-08-17T17:25:27.127Z,35.96
2022-08-17T17:31:02.098Z,36.39
2022-08-17T17:36:33.583Z,36.42
2022-08-17T17:42:05.555Z,37.02
2022-08-17T17:53:08.470Z,37.11
2022-08-17T17:58:40.143Z,37.26
2022-08-17T18:04:20.296Z,38.10
2022-08-17T18:09:43.347Z,38.35
2022-08-17T18:15:15.613Z,38.87
2022-08-17T18:20:53.812Z,39.54
2022-08-17T18:26:19.048Z,39.51
2022-08-17T18:31:50.930Z,39.57
2022-08-17T18:37:22.594Z,40.54
2022-08-17T18:42:54.443Z,40.76
2022-08-17T18:48:26.110Z,40.89
2022-08-17T18:53:58.030Z,41.20
2022-08-17T18:59:29.778Z,41.31
2022-08-17T19:05:01.548Z,41.51
2022-08-17T19:10:33.345Z,41.91
2022-08-17T19:16:05.168Z,43.01
2022-08-17T19:21:37.227Z,43.14
2022-08-17T19:27:09.021Z,43.27
2022-08-17T19:32:40.786Z,43.32
2022-08-17T19:38:13.469Z,43.84
2022-08-17T19:43:44.998Z,44.29
2022-08-17T19:54:48.782Z,45.18
2022-08-17T20:00:20.333Z,45.71
2022-08-17T20:06:12.084Z,46.42
2022-08-17T20:11:23.932Z,46.11
2022-08-17T20:19:08.957Z,46.73
2022-08-17T20:24:40.896Z,46.71
2022-08-17T20:30:12.999Z,46.72
2022-08-17T20:35:44.697Z,46.56
2022-08-17T20:41:16.599Z,46.52
2022-08-17T20:46:48.684Z,46.96
2022-08-17T20:52:20.634Z,47.19
2022-08-17T20:57:52.498Z,46.88
2022-08-17T21:03:24.541Z,47.41
2022-08-17T21:08:56.375Z,47.20
2022-08-17T21:14:28.658Z,47.40
2022-08-17T21:20:10.787Z,47.47
2022-08-17T21:25:32.131Z,47.50
2022-08-17T21:31:03.646Z,48.40
2022-08-17T21:36:35.525Z,48.34
2022-08-17T21:42:08.300Z,48.87
2022-08-17T21:47:40.100Z,48.88
2022-08-17T21:53:11.816Z,48.51
2022-08-17T21:58:47.866Z,48.88
2022-08-17T22:04:15.396Z,48.10
2022-08-17T22:09:47.413Z,51.54
2022-08-17T22:15:19.103Z,52.86
2022-08-17T22:20:50.735Z,56.45
2022-08-17T22:26:22.827Z,59.93
2022-08-17T22:31:54.712Z,61.94
2022-08-17T22:37:27.809Z,64.16
2022-08-17T22:42:58.657Z,71.28
2022-08-17T22:48:30.507Z,72.48
2022-08-17T22:54:02.436Z,74.87
2022-08-17T22:59:34.574Z,77.80
2022-08-17T23:05:12.448Z,79.34
2022-08-17T23:10:46.082Z,82.46
2022-08-17T23:16:17.940Z,84.61
2022-08-17T23:21:49.664Z,85.42
2022-08-17T23:27:27.485Z,87.18
2022-08-17T23:32:59.612Z,84.91
2022-08-17T23:38:31.810Z,84.25
2022-08-17T23:44:04.145Z,83.85
2022-08-17T23:49:36.589Z,83.76
2022-08-17T23:55:08.978Z,86.54
